Time;durP1;ratioP1;P1;durP2;ratioP2;P2;SDS_P1;SDS_P2;PMS_P1;PMS_P2;Temp;Humidity;BMP_temperature;BMP_pressure;BME280_temperature;BME280_humidity;BME280_pressure;Samples;Min_cycle;Max_cycle;Signal;HPM_P1;HPM_P2
2022/03/21 00:01:56;;;;;;;;;;;;;;;26.57;55.22;98834.51;617119;230;67055;-64
2022/03/21 00:04:24;;;;;;;;;;;;;;;26.56;55.41;98831.01;617123;230;63223;-64
2022/03/21 00:06:51;;;;;;;;;;;;;;;26.57;55.74;98831.81;617102;230;66855;-64
2022/03/21 00:09:19;;;;;;;;;;;;;;;26.55;56.64;98840.18;617106;230;67145;-64
2022/03/21 00:11:46;;;;;;;;;;;;;;;26.53;56.39;98830.73;617120;230;65337;-64
2022/03/21 00:14:14;;;;;;;;;;;;;;;26.52;56.31;98829.93;617086;230;65321;-65
2022/03/21 00:16:41;;;;;;;;;;;;;;;26.50;55.64;98825.84;617109;230;67114;-65
2022/03/21 00:19:09;;;;;;;;;;;;;;;26.52;56.71;98829.13;619162;229;65235;-64
2022/03/21 00:21:37;;;;;;;;;;;;;;;26.48;56.53;98826.09;619234;229;67175;-64
2022/03/21 00:24:05;;;;;;;;;;;;;;;26.46;56.62;98825.53;619260;229;65028;-64
2022/03/21 00:26:32;;;;;;;;;;;;;;;26.45;57.20;98817.73;619182;229;65346;-65
2022/03/21 00:29:01;;;;;;;;;;;;;;;26.44;55.97;98816.12;619256;229;43961;-64
2022/03/21 00:31:30;;;;;;;;;;;;;;;26.42;57.17;98819.06;619212;229;67516;-64
2022/03/21 00:33:57;;;;;;;;;;;;;;;26.41;57.08;98822.84;619203;229;65524;-63
2022/03/21 00:36:24;;;;;;;;;;;;;;;26.41;57.28;98805.84;619202;229;67224;-63
2022/03/21 00:38:52;;;;;;;;;;;;;;;26.42;58.31;98812.87;619235;229;67340;-63
2022/03/21 00:41:21;;;;;;;;;;;;;;;26.39;56.79;98802.61;619213;229;65361;-63
2022/03/21 00:43:52;;;;;;;;;;;;;;;26.37;57.06;98800.17;619220;229;67278;-64
2022/03/21 00:46:18;;;;;;;;;;;;;;;26.35;56.39;98805.00;619129;229;67107;-64
2022/03/21 00:48:45;;;;;;;;;;;;;;;26.37;56.58;98810.14;619233;229;65424;-63
2022/03/21 00:51:13;;;;;;;;;;;;;;;26.36;56.65;98806.64;619248;229;67216;-63
2022/03/21 00:53:40;;;;;;;;;;;;;;;26.32;56.51;98802.84;619216;229;66638;-63
2022/03/21 00:56:08;;;;;;;;;;;;;;;26.32;57.91;98810.92;619212;228;65214;-63
2022/03/21 00:58:35;;;;;;;;;;;;;;;26.30;57.18;98811.20;619209;229;67182;-62
2022/03/21 01:01:03;;;;;;;;;;;;;;;26.30;58.42;98811.20;619197;229;67193;-63
2022/03/21 01:03:30;;;;;;;;;;;;;;;26.28;59.40;98804.45;619266;229;65760;-63
2022/03/21 01:05:57;;;;;;;;;;;;;;;26.26;57.34;98804.70;619157;229;67223;-63
2022/03/21 01:08:25;;;;;;;;;;;;;;;26.26;58.03;98807.39;619226;229;67002;-63
2022/03/21 01:10:52;;;;;;;;;;;;;;;26.25;57.56;98803.09;619207;229;65313;-63
2022/03/21 01:13:21;;;;;;;;;;;;;;;26.25;57.12;98813.88;619195;229;67122;-63
2022/03/21 01:15:48;;;;;;;;;;;;;;;26.23;58.57;98810.62;619225;229;64851;-63
2022/03/21 01:18:16;;;;;;;;;;;;;;;26.23;58.59;98801.73;619264;229;63186;-63
2022/03/21 01:20:43;;;;;;;;;;;;;;;26.20;58.08;98804.95;619212;229;67754;-63
2022/03/21 01:23:11;;;;;;;;;;;;;;;26.20;58.24;98800.37;619211;229;64707;-63
2022/03/21 01:25:38;;;;;;;;;;;;;;;26.19;58.12;98804.14;619243;229;64102;-63
2022/03/21 01:28:06;;;;;;;;;;;;;;;26.18;57.25;98807.89;619291;229;64980;-63
2022/03/21 01:30:33;;;;;;;;;;;;;;;26.18;57.36;98799.81;619301;229;64833;-63
2022/03/21 01:33:01;;;;;;;;;;;;;;;26.17;57.08;98800.89;619193;229;63343;-63
2022/03/21 01:35:28;;;;;;;;;;;;;;;26.16;58.05;98812.73;619232;229;67241;-64
2022/03/21 01:37:56;;;;;;;;;;;;;;;26.15;58.63;98797.64;619242;229;67075;-64
2022/03/21 01:40:23;;;;;;;;;;;;;;;26.14;58.18;98801.42;619274;229;65389;-64
2022/03/21 01:42:51;;;;;;;;;;;;;;;26.13;58.89;98799.78;619330;229;66912;-64
2022/03/21 01:45:19;;;;;;;;;;;;;;;26.12;59.02;98793.59;619249;229;64616;-64
2022/03/21 01:47:47;;;;;;;;;;;;;;;26.12;58.98;98798.17;619168;229;65380;-64
2022/03/21 01:50:15;;;;;;;;;;;;;;;26.09;58.54;98794.11;619261;229;66973;-64
2022/03/21 01:52:44;;;;;;;;;;;;;;;26.08;58.29;98791.67;619293;229;66860;-64
2022/03/21 01:57:51;;;;;;;;;;;;;;;26.06;58.26;98783.86;612898;229;66852;-64
2022/03/21 02:00:19;;;;;;;;;;;;;;;26.05;58.98;98786.80;619237;229;64310;-64
2022/03/21 02:02:47;;;;;;;;;;;;;;;26.03;58.73;98784.39;619245;229;65345;-64
2022/03/21 02:05:14;;;;;;;;;;;;;;;26.03;58.32;98775.50;619263;229;66908;-63
2022/03/21 02:07:42;;;;;;;;;;;;;;;26.04;58.84;98777.11;619289;229;66766;-63
2022/03/21 02:10:10;;;;;;;;;;;;;;;26.01;58.20;98781.14;619255;229;65444;-63
2022/03/21 02:12:38;;;;;;;;;;;;;;;26.02;58.66;98781.95;619200;229;67059;-63
2022/03/21 02:15:06;;;;;;;;;;;;;;;26.00;59.40;98773.30;619201;229;67414;-63
2022/03/21 02:17:35;;;;;;;;;;;;;;;25.98;59.29;98787.05;618489;229;65288;-63
2022/03/21 02:20:03;;;;;;;;;;;;;;;25.97;58.56;98785.41;617182;229;65025;-63
2022/03/21 02:22:40;;;;;;;;;;;;;;;25.97;58.97;98784.61;617115;230;65069;-63
2022/03/21 02:25:25;;;;;;;;;;;;;;;25.96;58.51;98783.80;616679;230;65298;-63
2022/03/21 02:27:53;;;;;;;;;;;;;;;25.96;58.90;98785.69;616974;230;67342;-63
2022/03/21 02:30:21;;;;;;;;;;;;;;;25.95;60.04;98778.69;617092;230;64800;-64
2022/03/21 02:32:49;;;;;;;;;;;;;;;25.93;59.28;98778.13;617156;230;65392;-64
2022/03/21 02:35:17;;;;;;;;;;;;;;;25.91;58.53;98781.08;617137;230;66975;-64
2022/03/21 02:37:46;;;;;;;;;;;;;;;25.90;59.22;98785.66;617110;230;64976;-64
2022/03/21 02:40:14;;;;;;;;;;;;;;;25.90;59.81;98788.34;617081;230;65134;-63
2022/03/21 02:42:42;;;;;;;;;;;;;;;25.88;59.19;98777.02;617117;230;64968;-63
2022/03/21 02:45:10;;;;;;;;;;;;;;;25.87;58.42;98782.69;617124;230;64904;-63
2022/03/21 02:47:37;;;;;;;;;;;;;;;25.85;59.04;98776.73;617117;230;65330;-64
2022/03/21 02:50:06;;;;;;;;;;;;;;;25.86;59.62;98784.57;617168;230;67210;-64
2022/03/21 02:52:34;;;;;;;;;;;;;;;25.84;59.16;98786.70;617084;230;64874;-64
2022/03/21 02:55:02;;;;;;;;;;;;;;;25.84;59.85;98791.28;617112;230;65303;-64
2022/03/21 02:57:31;;;;;;;;;;;;;;;25.81;60.18;98784.50;617124;230;67224;-63
2022/03/21 02:59:58;;;;;;;;;;;;;;;25.81;59.63;98780.97;617073;230;67095;-64
2022/03/21 03:02:26;;;;;;;;;;;;;;;25.80;59.69;98774.78;617149;230;65379;-64
2022/03/21 03:04:54;;;;;;;;;;;;;;;25.79;59.08;98775.86;617075;230;67170;-64
2022/03/21 03:07:23;;;;;;;;;;;;;;;25.79;60.39;98773.17;617105;230;67181;-64
2022/03/21 03:09:50;;;;;;;;;;;;;;;25.79;59.61;98775.06;617105;230;65322;-64
2022/03/21 03:12:18;;;;;;;;;;;;;;;25.76;59.30;98772.89;617123;230;67184;-64
2022/03/21 03:14:45;;;;;;;;;;;;;;;25.76;59.16;98764.81;617104;230;67099;-64
2022/03/21 03:17:13;;;;;;;;;;;;;;;25.74;58.69;98770.44;617462;229;65116;-64
2022/03/21 03:19:40;;;;;;;;;;;;;;;25.74;60.62;98770.44;619218;229;67042;-64
2022/03/21 03:22:09;;;;;;;;;;;;;;;25.73;59.77;98762.61;619275;229;66933;-64
2022/03/21 03:24:37;;;;;;;;;;;;;;;25.71;59.85;98760.20;619203;229;63252;-64
2022/03/21 03:27:05;;;;;;;;;;;;;;;25.71;60.09;98762.08;619288;229;65158;-64
2022/03/21 03:29:33;;;;;;;;;;;;;;;25.69;60.32;98770.41;619224;229;67159;-64
2022/03/21 03:32:03;;;;;;;;;;;;;;;25.68;60.18;98766.91;619197;229;65147;-64
2022/03/21 03:34:31;;;;;;;;;;;;;;;25.68;60.34;98766.11;619191;229;67263;-64
2022/03/21 03:36:59;;;;;;;;;;;;;;;25.68;60.96;98769.59;619251;229;67090;-63
2022/03/21 03:39:27;;;;;;;;;;;;;;;25.65;59.53;98763.93;619217;229;65369;-63
2022/03/21 03:41:55;;;;;;;;;;;;;;;25.64;59.67;98768.48;619266;229;64876;-63
2022/03/21 03:44:25;;;;;;;;;;;;;;;25.65;59.48;98761.24;619228;229;67117;-63
2022/03/21 03:46:53;;;;;;;;;;;;;;;25.64;60.52;98754.22;619238;229;63555;-63
2022/03/21 03:49:21;;;;;;;;;;;;;;;25.63;60.58;98757.98;619225;229;66898;-63
2022/03/21 03:51:48;;;;;;;;;;;;;;;25.60;59.80;98747.73;619237;229;66975;-62
2022/03/21 03:54:16;;;;;;;;;;;;;;;25.61;59.79;98760.13;619233;229;65331;-63
2022/03/21 03:56:44;;;;;;;;;;;;;;;25.60;59.88;98758.51;619189;229;67425;-64
2022/03/21 03:59:12;;;;;;;;;;;;;;;25.58;59.26;98753.38;619218;229;64972;-63
2022/03/21 04:01:39;;;;;;;;;;;;;;;25.58;59.62;98749.88;619229;229;64132;-64
2022/03/21 04:04:07;;;;;;;;;;;;;;;25.55;60.56;98748.52;619222;229;64752;-64
2022/03/21 04:06:34;;;;;;;;;;;;;;;25.55;60.04;98755.78;619288;229;64680;-64
2022/03/21 04:09:04;;;;;;;;;;;;;;;25.55;60.09;98761.97;619227;229;63219;-64
2022/03/21 04:11:31;;;;;;;;;;;;;;;25.53;60.89;98757.91;619200;229;64980;-64
2022/03/21 04:13:58;;;;;;;;;;;;;;;25.53;60.21;98747.14;619237;229;64957;-64
2022/03/21 04:16:26;;;;;;;;;;;;;;;25.52;60.41;98740.95;619194;229;63169;-65
2022/03/21 04:18:53;;;;;;;;;;;;;;;25.51;59.08;98749.28;619211;229;65030;-64
2022/03/21 04:21:21;;;;;;;;;;;;;;;25.49;60.74;98760.32;619231;229;65821;-64
2022/03/21 04:23:48;;;;;;;;;;;;;;;25.50;60.57;98753.05;619176;229;64982;-64
2022/03/21 04:26:16;;;;;;;;;;;;;;;25.48;59.79;98747.91;619221;229;67040;-64
2022/03/21 04:28:43;;;;;;;;;;;;;;;25.46;59.60;98747.38;619227;229;66871;-64
2022/03/21 04:31:11;;;;;;;;;;;;;;;25.45;59.45;98751.13;619255;229;65258;-64
2022/03/21 04:33:38;;;;;;;;;;;;;;;25.45;60.06;98746.58;619230;229;64833;-64
2022/03/21 04:36:07;;;;;;;;;;;;;;;25.45;60.14;98751.13;619236;229;66833;-64
2022/03/21 04:38:35;;;;;;;;;;;;;;;25.43;59.53;98746.02;619169;229;65190;-63
2022/03/21 04:41:02;;;;;;;;;;;;;;;25.41;60.59;98748.14;619230;229;67125;-63
2022/03/21 04:43:30;;;;;;;;;;;;;;;25.42;60.09;98746.26;619189;229;67372;-63
2022/03/21 04:45:57;;;;;;;;;;;;;;;25.41;59.39;98739.27;619251;229;65411;-63
2022/03/21 04:48:25;;;;;;;;;;;;;;;25.39;59.58;98736.02;619201;229;67357;-63
2022/03/21 04:50:52;;;;;;;;;;;;;;;25.38;60.02;98737.90;619182;229;67075;-63
2022/03/21 04:53:20;;;;;;;;;;;;;;;25.38;59.59;98739.78;619187;229;65293;-63
2022/03/21 04:55:48;;;;;;;;;;;;;;;25.36;60.64;98745.41;619205;229;67231;-63
2022/03/21 04:58:16;;;;;;;;;;;;;;;25.35;59.68;98741.11;619246;229;66797;-63
2022/03/21 05:00:49;;;;;;;;;;;;;;;25.35;59.50;98741.11;619226;229;63291;-66
2022/03/21 05:03:14;;;;;;;;;;;;;;;25.34;60.01;98750.23;619027;229;67048;-65
2022/03/21 05:05:41;;;;;;;;;;;;;;;25.32;60.37;98741.63;619189;229;66907;-65
2022/03/21 05:08:09;;;;;;;;;;;;;;;25.32;59.37;98747.02;619179;229;65543;-64
2022/03/21 05:10:37;;;;;;;;;;;;;;;25.32;59.99;98747.02;619264;229;67367;-65
2022/03/21 05:13:06;;;;;;;;;;;;;;;25.30;59.82;98743.76;619209;229;67070;-65
2022/03/21 05:15:34;;;;;;;;;;;;;;;25.30;60.46;98754.52;619177;229;66263;-65
2022/03/21 05:18:01;;;;;;;;;;;;;;;25.29;60.13;98744.00;618045;229;67213;-65
2022/03/21 05:20:29;;;;;;;;;;;;;;;25.29;60.46;98742.15;617098;229;66890;-65
2022/03/21 05:31:13;;;;;;;;;;;;;;;25.26;60.28;98748.02;617102;230;65566;-65
2022/03/21 05:36:26;;;;;;;;;;;;;;;25.26;61.20;98758.78;617100;230;65084;-64
2022/03/21 05:38:54;;;;;;;;;;;;;;;25.25;60.85;98757.97;617056;229;65662;-64
2022/03/21 05:41:24;;;;;;;;;;;;;;;25.27;61.28;98754.23;617115;230;67166;-64
2022/03/21 05:43:51;;;;;;;;;;;;;;;25.27;61.11;98759.62;617127;230;67114;-64
2022/03/21 05:46:19;;;;;;;;;;;;;;;25.27;60.63;98755.05;617098;230;65363;-64
2022/03/21 05:49:02;;;;;;;;;;;;;;;25.27;60.73;98765.80;617007;230;67248;-64
2022/03/21 05:51:37;;;;;;;;;;;;;;;25.27;60.47;98765.80;617129;230;66426;-65
2022/03/21 05:54:05;;;;;;;;;;;;;;;25.28;60.98;98764.73;617110;230;65379;-64
2022/03/21 05:56:34;;;;;;;;;;;;;;;25.29;59.74;98769.05;617106;230;66976;-64
2022/03/21 06:01:31;;;;;;;;;;;;;;;25.29;61.70;98760.98;612396;230;65325;-65
2022/03/21 06:03:59;;;;;;;;;;;;;;;25.31;60.37;98764.20;617135;230;67022;-65
2022/03/21 06:06:26;;;;;;;;;;;;;;;25.31;60.91;98764.20;617137;230;66827;-65
2022/03/21 06:08:54;;;;;;;;;;;;;;;25.32;60.70;98773.92;617153;230;65267;-65
2022/03/21 06:11:21;;;;;;;;;;;;;;;25.33;61.45;98770.16;617165;230;66824;-65
2022/03/21 06:13:50;;;;;;;;;;;;;;;25.33;60.78;98772.84;617134;230;64700;-65
2022/03/21 06:16:17;;;;;;;;;;;;;;;25.35;60.29;98773.41;617107;230;65381;-65
2022/03/21 06:18:46;;;;;;;;;;;;;;;25.34;61.22;98773.65;618773;229;67002;-65
2022/03/21 06:21:13;;;;;;;;;;;;;;;25.35;60.31;98768.02;619205;229;67023;-65
2022/03/21 06:23:41;;;;;;;;;;;;;;;25.36;59.83;98772.33;619248;229;63307;-65
2022/03/21 06:26:08;;;;;;;;;;;;;;;25.37;60.40;98771.28;619139;229;67370;-64
2022/03/21 06:28:36;;;;;;;;;;;;;;;25.38;60.05;98775.58;619181;228;67105;-64
2022/03/21 06:31:04;;;;;;;;;;;;;;;25.39;58.63;98765.62;619207;229;63160;-64
2022/03/21 06:33:32;;;;;;;;;;;;;;;25.40;58.81;98773.45;618905;229;67221;-64
2022/03/21 06:36:02;;;;;;;;;;;;;;;25.42;59.94;98773.98;618874;229;49348;-64
2022/03/21 06:38:30;;;;;;;;;;;;;;;25.43;58.65;98766.74;619237;229;63219;-64
2022/03/21 06:40:58;;;;;;;;;;;;;;;25.43;58.17;98772.13;619260;229;67231;-64
2022/03/21 06:43:27;;;;;;;;;;;;;;;25.46;59.72;98779.68;619209;229;65084;-64
2022/03/21 06:45:55;;;;;;;;;;;;;;;25.45;59.40;98767.27;619231;229;65310;-64
2022/03/21 06:48:24;;;;;;;;;;;;;;;25.46;59.84;98769.72;619204;229;65090;-64
2022/03/21 06:50:53;;;;;;;;;;;;;;;25.46;59.44;98767.03;619288;229;67046;-64
2022/03/21 06:53:21;;;;;;;;;;;;;;;25.46;59.16;98769.72;619136;229;63178;-63
2022/03/21 06:55:49;;;;;;;;;;;;;;;25.49;58.75;98762.20;619195;229;65134;-57
2022/03/21 06:58:17;;;;;;;;;;;;;;;25.49;59.56;98767.59;618394;229;64957;-66
2022/03/21 07:00:46;;;;;;;;;;;;;;;25.50;58.09;98766.51;619057;229;64095;-64
2022/03/21 07:03:19;;;;;;;;;;;;;;;25.51;55.91;98760.88;621623;227;65080;-64
2022/03/21 07:05:46;;;;;;;;;;;;;;;25.56;57.16;98768.16;623797;227;67035;-66
2022/03/21 07:08:14;;;;;;;;;;;;;;;25.57;57.73;98769.80;623677;227;62987;-63
2022/03/21 07:10:44;;;;;;;;;;;;;;;25.57;58.35;98764.41;623758;227;64844;-63
2022/03/21 07:13:11;;;;;;;;;;;;;;;25.57;57.29;98765.22;623889;227;65188;-64
2022/03/21 07:15:38;;;;;;;;;;;;;;;25.58;58.24;98764.14;623974;227;65226;-59
2022/03/21 07:18:08;;;;;;;;;;;;;;;25.61;57.19;98757.43;622416;227;67169;-61
2022/03/21 07:20:37;;;;;;;;;;;;;;;25.58;58.82;98756.06;621246;228;67135;-60
2022/03/21 07:23:05;;;;;;;;;;;;;;;25.59;58.20;98759.56;621251;228;65267;-65
2022/03/21 07:25:32;;;;;;;;;;;;;;;25.58;58.59;98755.26;621309;228;67151;-61
2022/03/21 07:28:00;;;;;;;;;;;;;;;25.58;58.27;98747.98;621261;228;64842;-64
2022/03/21 07:30:27;;;;;;;;;;;;;;;25.57;57.65;98759.84;618101;228;65426;-61
2022/03/21 07:32:55;;;;;;;;;;;;;;;25.54;58.33;98760.36;616426;230;67118;-61
2022/03/21 07:35:24;;;;;;;;;;;;;;;25.51;58.16;98763.57;616391;230;66880;-61
2022/03/21 07:37:54;;;;;;;;;;;;;;;25.51;57.13;98758.19;616415;230;65952;-62
2022/03/21 07:40:22;;;;;;;;;;;;;;;25.51;57.53;98760.88;616425;230;65365;-62
2022/03/21 07:42:49;;;;;;;;;;;;;;;25.50;56.97;98756.55;616440;230;67016;-61
2022/03/21 07:48:04;;;;;;;;;;;;;;;25.51;57.61;98760.05;616299;230;67415;-63
2022/03/21 07:50:32;;;;;;;;;;;;;;;25.50;56.53;98750.36;616438;230;67040;-63
2022/03/21 07:53:00;;;;;;;;;;;;;;;25.50;56.37;98756.55;616421;230;65220;-63
2022/03/21 07:55:31;;;;;;;;;;;;;;;25.52;56.94;98761.69;616463;230;64850;-63
2022/03/21 07:57:59;;;;;;;;;;;;;;;25.51;57.04;98758.19;616351;230;72464;-64
2022/03/21 08:00:30;;;;;;;;;;;;;;;25.52;57.06;98750.92;616399;230;63011;-64
2022/03/21 08:02:59;;;;;;;;;;;;;;;25.51;58.01;98744.73;616350;230;67168;-64
2022/03/21 08:05:28;;;;;;;;;;;;;;;25.58;56.67;98747.18;616442;230;65079;-68
2022/03/21 08:07:56;;;;;;;;;;;;;;;25.62;56.00;98745.61;616444;230;65477;-62
2022/03/21 08:10:24;;;;;;;;;;;;;;;25.67;56.18;98745.61;616464;230;67209;-63
2022/03/21 08:12:51;;;;;;;;;;;;;;;25.67;56.29;98746.45;616412;230;64993;-62
2022/03/21 08:15:19;;;;;;;;;;;;;;;25.67;55.83;98735.68;616417;230;62999;-64
2022/03/21 08:17:56;;;;;;;;;;;;;;;25.69;56.32;98741.59;618631;228;67249;-62
2022/03/21 08:20:23;;;;;;;;;;;;;;;25.71;55.47;98735.96;621922;228;64732;-62
2022/03/21 08:22:52;;;;;;;;;;;;;;;25.72;55.96;98742.95;621889;228;63182;-62
2022/03/21 08:25:23;;;;;;;;;;;;;;;25.75;55.97;98745.13;621802;228;67420;-62
2022/03/21 08:27:51;;;;;;;;;;;;;;;25.78;56.11;98743.80;621817;228;68134;-66
2022/03/21 08:30:18;;;;;;;;;;;;;;;25.80;56.37;98747.85;621888;228;65363;-62
2022/03/21 08:32:47;;;;;;;;;;;;;;;25.82;56.57;98742.22;621820;228;67251;-62
2022/03/21 08:35:15;;;;;;;;;;;;;;;25.83;56.00;98739.28;621932;228;67103;-62
2022/03/21 08:37:43;;;;;;;;;;;;;;;25.85;56.52;98744.41;621793;228;65442;-63
2022/03/21 08:40:11;;;;;;;;;;;;;;;25.88;55.85;98743.89;621785;228;67061;-62
2022/03/21 08:42:39;;;;;;;;;;;;;;;25.86;55.22;98746.86;621878;228;66968;-61
2022/03/21 08:45:08;;;;;;;;;;;;;;;25.88;56.82;98750.08;621815;228;63295;-62
2022/03/21 08:47:37;;;;;;;;;;;;;;;25.91;55.97;98746.06;621793;228;66910;-61
2022/03/21 08:50:05;;;;;;;;;;;;;;;25.90;56.18;98744.45;621935;228;64866;-62
2022/03/21 08:52:33;;;;;;;;;;;;;;;25.91;55.23;98749.55;621681;228;63265;-63
2022/03/21 08:55:00;;;;;;;;;;;;;;;25.90;56.66;98741.75;621776;228;65223;-65
2022/03/21 08:57:28;;;;;;;;;;;;;;;25.89;56.98;98740.95;621798;228;64783;-64
2022/03/21 08:59:55;;;;;;;;;;;;;;;25.89;56.19;98748.19;621756;228;63030;-66
2022/03/21 09:02:23;;;;;;;;;;;;;;;25.89;55.76;98732.87;621868;228;67291;-65
2022/03/21 09:04:51;;;;;;;;;;;;;;;25.90;55.27;98739.87;621825;228;66952;-66
2022/03/21 09:07:19;;;;;;;;;;;;;;;25.91;54.31;98730.70;621745;228;65284;-67
2022/03/21 09:09:46;;;;;;;;;;;;;;;25.94;54.68;98731.26;621868;228;67189;-64
2022/03/21 09:12:14;;;;;;;;;;;;;;;25.95;55.66;98730.20;621877;228;67018;-66
2022/03/21 09:14:42;;;;;;;;;;;;;;;25.96;54.36;98735.31;621881;228;65297;-65
2022/03/21 09:17:10;;;;;;;;;;;;;;;25.98;52.93;98727.79;620798;228;64745;-65
2022/03/21 09:19:38;;;;;;;;;;;;;;;26.00;54.05;98735.59;616400;230;67078;-65
2022/03/21 09:22:05;;;;;;;;;;;;;;;26.02;54.55;98725.37;616387;230;65496;-65
2022/03/21 09:24:34;;;;;;;;;;;;;;;26.03;53.68;98725.12;616422;230;67173;-66
2022/03/21 09:27:01;;;;;;;;;;;;;;;26.06;53.00;98729.17;615638;230;67048;-66
2022/03/21 09:29:29;;;;;;;;;;;;;;;26.07;53.75;98731.59;616396;230;65598;-66
2022/03/21 09:31:56;;;;;;;;;;;;;;;26.09;51.75;98729.45;616441;230;64866;-65
2022/03/21 09:34:24;;;;;;;;;;;;;;;26.10;52.38;98722.97;616402;230;66986;-65
2022/03/21 09:36:52;;;;;;;;;;;;;;;26.12;53.39;98717.34;616365;230;65348;-63
2022/03/21 09:39:19;;;;;;;;;;;;;;;26.16;50.59;98718.41;616396;230;67137;-63
2022/03/21 09:41:47;;;;;;;;;;;;;;;26.14;53.12;98720.59;616348;230;67429;-65
2022/03/21 09:44:15;;;;;;;;;;;;;;;26.15;53.13;98721.39;616435;230;65280;-66
2022/03/21 09:46:44;;;;;;;;;;;;;;;26.15;53.19;98710.61;616425;230;66926;-67
2022/03/21 09:49:14;;;;;;;;;;;;;;;26.13;53.73;98703.58;616366;230;67204;-63
2022/03/21 09:51:44;;;;;;;;;;;;;;;26.15;52.80;98707.92;616383;230;62868;-63
2022/03/21 09:54:13;;;;;;;;;;;;;;;26.17;53.12;98714.66;616433;230;65109;-66
2022/03/21 09:56:41;;;;;;;;;;;;;;;26.16;52.51;98702.25;616423;230;64645;-65
2022/03/21 09:59:08;;;;;;;;;;;;;;;26.18;52.63;98693.91;616362;230;63179;-64
2022/03/21 10:01:41;;;;;;;;;;;;;;;26.19;52.71;98693.66;616480;230;64468;-63
2022/03/21 10:04:09;;;;;;;;;;;;;;;26.20;52.08;98692.58;616417;230;66726;-64
2022/03/21 10:06:39;;;;;;;;;;;;;;;26.21;52.07;98680.71;616438;230;63283;-64
2022/03/21 10:09:16;;;;;;;;;;;;;;;26.22;52.43;98684.21;616451;230;67346;-64
2022/03/21 10:11:52;;;;;;;;;;;;;;;26.23;52.30;98681.27;616325;230;66729;-64
2022/03/21 10:14:24;;;;;;;;;;;;;;;26.24;52.74;98677.48;617169;229;63018;-64
2022/03/21 10:16:53;;;;;;;;;;;;;;;26.24;51.42;98669.40;617936;229;66991;-64
2022/03/21 10:19:21;;;;;;;;;;;;;;;26.25;51.62;98675.63;620901;228;66826;-65
2022/03/21 10:22:02;;;;;;;;;;;;;;;26.26;52.43;98671.84;621249;228;65264;-65
2022/03/21 10:24:31;;;;;;;;;;;;;;;26.21;48.57;98664.55;621239;228;67232;-62
2022/03/21 10:26:58;;;;;;;;;;;;;;;26.21;50.11;98669.13;620895;228;66957;-62
2022/03/21 10:29:26;;;;;;;;;;;;;;;26.29;46.23;98671.30;620462;228;65095;-62
2022/03/21 10:31:54;;;;;;;;;;;;;;;26.34;47.60;98660.54;621061;228;67246;-61
2022/03/21 10:34:23;;;;;;;;;;;;;;;26.35;48.76;98662.98;621263;228;66957;-63
2022/03/21 10:37:06;;;;;;;;;;;;;;;26.35;51.60;98664.84;621227;228;63337;-61
2022/03/21 10:39:41;;;;;;;;;;;;;;;26.37;48.18;98664.59;621047;228;67173;-64
2022/03/21 10:42:09;;;;;;;;;;;;;;;26.40;49.14;98658.66;621255;228;66983;-65
2022/03/21 10:44:38;;;;;;;;;;;;;;;26.41;48.88;98653.02;620501;228;65008;-65
2022/03/21 10:47:06;;;;;;;;;;;;;;;26.42;49.34;98654.63;620070;228;65890;-66
2022/03/21 10:49:48;;;;;;;;;;;;;;;26.43;48.85;98637.36;621094;228;66886;-67
2022/03/21 10:52:14;;;;;;;;;;;;;;;26.44;49.67;98644.39;621076;228;65170;-67
2022/03/21 10:54:48;;;;;;;;;;;;;;;26.46;49.91;98638.72;620978;228;68017;-67
2022/03/21 10:57:24;;;;;;;;;;;;;;;26.46;49.86;98636.02;621189;228;67320;-66
2022/03/21 10:59:52;;;;;;;;;;;;;;;26.48;50.04;98633.88;621048;228;68559;-67
2022/03/21 11:02:19;;;;;;;;;;;;;;;26.49;50.65;98635.48;621244;228;65826;-67
2022/03/21 11:04:48;;;;;;;;;;;;;;;26.50;49.73;98624.45;621266;228;66938;-67
2022/03/21 11:07:15;;;;;;;;;;;;;;;26.51;49.87;98619.89;621197;228;65676;-67
2022/03/21 11:09:43;;;;;;;;;;;;;;;26.53;49.96;98625.83;621203;228;67245;-67
2022/03/21 11:12:11;;;;;;;;;;;;;;;26.55;49.85;98618.28;621213;228;67043;-67
2022/03/21 11:14:41;;;;;;;;;;;;;;;26.57;50.35;98618.80;621001;228;65305;-67
2022/03/21 11:17:09;;;;;;;;;;;;;;;26.57;50.55;98605.33;621122;228;66893;-67
2022/03/21 11:19:36;;;;;;;;;;;;;;;26.59;50.68;98607.77;621232;228;66957;-66
2022/03/21 11:22:04;;;;;;;;;;;;;;;26.60;50.63;98607.51;621204;228;63139;-66
2022/03/21 11:24:34;;;;;;;;;;;;;;;26.62;51.03;98615.31;621213;228;64239;-64
2022/03/21 11:27:09;;;;;;;;;;;;;;;26.59;49.96;98613.96;621188;228;64669;-65
2022/03/21 11:29:47;;;;;;;;;;;;;;;26.67;48.02;98610.73;620873;228;65133;-64
2022/03/21 11:32:23;;;;;;;;;;;;;;;26.71;48.43;98609.13;621259;228;67173;-65
2022/03/21 11:35:12;;;;;;;;;;;;;;;26.73;48.77;98604.24;621096;228;44852;-64
2022/03/21 11:37:40;;;;;;;;;;;;;;;26.76;48.97;98603.73;621251;228;65380;-64
2022/03/21 11:40:25;;;;;;;;;;;;;;;26.78;50.15;98609.64;621262;228;67231;-64
2022/03/21 11:42:55;;;;;;;;;;;;;;;26.79;48.44;98597.80;621196;228;66851;-66
2022/03/21 11:45:23;;;;;;;;;;;;;;;26.83;49.44;98581.06;621209;228;63223;-65
2022/03/21 11:47:51;;;;;;;;;;;;;;;26.83;49.92;98587.26;621216;228;67042;-63
2022/03/21 11:50:25;;;;;;;;;;;;;;;26.81;51.21;98605.59;621009;228;67031;-63
2022/03/21 11:53:07;;;;;;;;;;;;;;;26.80;50.81;98585.11;620474;228;65351;-62
2022/03/21 11:55:40;;;;;;;;;;;;;;;26.79;51.44;98573.52;621188;228;65215;-63
2022/03/21 11:58:25;;;;;;;;;;;;;;;26.81;51.52;98575.13;620987;228;66490;-62
2022/03/21 12:01:15;;;;;;;;;;;;;;;26.80;50.83;98585.11;621262;228;63198;-64
2022/03/21 12:03:43;;;;;;;;;;;;;;;26.81;50.44;98583.22;621274;228;65060;-63
2022/03/21 12:06:18;;;;;;;;;;;;;;;26.81;49.26;98567.84;621218;228;66875;-63
2022/03/21 12:08:48;;;;;;;;;;;;;;;26.82;49.18;98571.33;619141;228;63028;-63
2022/03/21 12:11:36;;;;;;;;;;;;;;;26.82;48.82;98566.77;620647;228;67256;-61
2022/03/21 12:14:23;;;;;;;;;;;;;;;26.82;49.05;98558.69;621268;228;65126;-63
2022/03/21 12:17:05;;;;;;;;;;;;;;;26.82;49.14;98555.98;621232;228;65550;-63
2022/03/21 12:19:54;;;;;;;;;;;;;;;26.83;48.00;98560.28;621182;228;67543;-64
2022/03/21 12:22:43;;;;;;;;;;;;;;;26.85;48.19;98554.63;621261;228;64916;-63
2022/03/21 12:25:11;;;;;;;;;;;;;;;26.86;49.03;98553.55;620795;228;65613;-64
2022/03/21 12:27:47;;;;;;;;;;;;;;;26.87;48.26;98563.23;621202;228;64974;-63
2022/03/21 12:30:27;;;;;;;;;;;;;;;26.86;47.64;98548.95;620966;228;66917;-64
2022/03/21 12:32:55;;;;;;;;;;;;;;;26.87;48.09;98555.95;621232;228;66142;-63
2022/03/21 12:35:45;;;;;;;;;;;;;;;26.88;47.76;98554.09;621181;228;66932;-63
2022/03/21 12:38:56;;;;;;;;;;;;;;;26.88;47.43;98552.19;621306;228;67018;-65
2022/03/21 12:40:51;;;;;;;;;;;;;;;26.88;48.97;98554.89;619636;228;65517;-64
2022/03/21 12:43:28;;;;;;;;;;;;;;;26.82;49.18;98553.29;621202;228;67501;-60
2022/03/21 12:46:11;;;;;;;;;;;;;;;26.82;46.84;98553.29;621227;228;65051;-64
2022/03/21 12:48:46;;;;;;;;;;;;;;;26.82;45.49;98537.10;621146;228;65466;-64
2022/03/21 12:51:15;;;;;;;;;;;;;;;26.87;47.17;98534.37;620832;228;67327;-63
2022/03/21 12:53:47;;;;;;;;;;;;;;;26.90;47.35;98528.45;621272;228;66904;-65
2022/03/21 12:56:17;;;;;;;;;;;;;;;26.89;49.33;98531.41;621273;228;63465;-65
2022/03/21 12:58:46;;;;;;;;;;;;;;;26.89;48.45;98534.11;621108;228;64999;-69
2022/03/21 13:01:14;;;;;;;;;;;;;;;26.90;48.16;98522.23;621104;228;65131;-64
2022/03/21 13:03:42;;;;;;;;;;;;;;;26.86;48.06;98526.56;621230;228;63003;-66
2022/03/21 13:11:31;;;;;;;;;;;;;;;26.91;47.91;98524.66;621117;228;62900;-68
2022/03/21 13:14:00;;;;;;;;;;;;;;;26.91;47.62;98521.97;620114;228;67173;-66
2022/03/21 13:16:29;;;;;;;;;;;;;;;26.93;47.22;98524.41;620695;228;66998;-67
2022/03/21 13:19:03;;;;;;;;;;;;;;;26.93;47.81;98521.70;622406;228;63185;-65
2022/03/21 13:21:27;;;;;;;;;;;;;;;26.92;47.51;98514.67;622347;228;64831;-65
2022/03/21 13:23:54;;;;;;;;;;;;;;;26.92;48.29;98509.28;622589;228;66767;-65